sensor_id;sensor_type;location;lat;lon;timestamp;P1;durP1;ratioP1;P2;durP2;ratioP2
61344;SDS011;47216;42.656;23.232;2022-09-11T00:02:16;11.93;;;4.77;;
61344;SDS011;47216;42.656;23.232;2022-09-11T00:04:45;6.13;;;5.10;;
61344;SDS011;47216;42.656;23.232;2022-09-11T00:07:12;9.17;;;5.10;;
61344;SDS011;47216;42.656;23.232;2022-09-11T00:09:38;11.37;;;4.90;;
61344;SDS011;47216;42.656;23.232;2022-09-11T00:12:05;9.47;;;4.57;;
61344;SDS011;47216;42.656;23.232;2022-09-11T00:14:32;8.00;;;4.67;;
61344;SDS011;47216;42.656;23.232;2022-09-11T00:16:59;7.20;;;4.60;;
61344;SDS011;47216;42.656;23.232;2022-09-11T00:19:26;10.23;;;5.93;;
61344;SDS011;47216;42.656;23.232;2022-09-11T00:21:55;8.60;;;5.00;;
61344;SDS011;47216;42.656;23.232;2022-09-11T00:24:21;12.10;;;4.80;;
61344;SDS011;47216;42.656;23.232;2022-09-11T00:26:48;9.70;;;4.60;;
61344;SDS011;47216;42.656;23.232;2022-09-11T00:29:15;10.27;;;4.50;;
61344;SDS011;47216;42.656;23.232;2022-09-11T00:31:42;4.80;;;3.87;;
61344;SDS011;47216;42.656;23.232;2022-09-11T00:34:10;5.87;;;4.50;;
61344;SDS011;47216;42.656;23.232;2022-09-11T00:36:37;11.07;;;4.37;;
61344;SDS011;47216;42.656;23.232;2022-09-11T00:39:07;10.63;;;4.43;;
61344;SDS011;47216;42.656;23.232;2022-09-11T00:41:35;7.73;;;4.60;;
61344;SDS011;47216;42.656;23.232;2022-09-11T00:44:04;7.90;;;4.30;;
61344;SDS011;47216;42.656;23.232;2022-09-11T00:46:36;7.93;;;4.50;;
61344;SDS011;47216;42.656;23.232;2022-09-11T00:49:11;13.20;;;4.33;;
61344;SDS011;47216;42.656;23.232;2022-09-11T00:51:42;12.20;;;5.03;;
61344;SDS011;47216;42.656;23.232;2022-09-11T00:54:15;7.93;;;4.30;;
61344;SDS011;47216;42.656;23.232;2022-09-11T00:56:45;8.53;;;4.80;;
61344;SDS011;47216;42.656;23.232;2022-09-11T00:59:14;8.60;;;4.30;;
61344;SDS011;47216;42.656;23.232;2022-09-11T01:01:44;7.03;;;4.50;;
61344;SDS011;47216;42.656;23.232;2022-09-11T01:04:11;8.40;;;3.90;;
61344;SDS011;47216;42.656;23.232;2022-09-11T01:06:38;4.63;;;3.60;;
61344;SDS011;47216;42.656;23.232;2022-09-11T01:09:05;7.23;;;4.67;;
61344;SDS011;47216;42.656;23.232;2022-09-11T01:11:40;8.07;;;4.40;;
61344;SDS011;47216;42.656;23.232;2022-09-11T01:14:17;8.90;;;5.17;;
61344;SDS011;47216;42.656;23.232;2022-09-11T01:17:06;11.47;;;4.83;;
61344;SDS011;47216;42.656;23.232;2022-09-11T01:19:53;11.03;;;4.60;;
61344;SDS011;47216;42.656;23.232;2022-09-11T01:22:44;11.30;;;4.73;;
61344;SDS011;47216;42.656;23.232;2022-09-11T01:25:23;7.60;;;4.23;;
61344;SDS011;47216;42.656;23.232;2022-09-11T01:27:58;11.77;;;5.00;;
61344;SDS011;47216;42.656;23.232;2022-09-11T01:30:31;8.80;;;4.40;;
61344;SDS011;47216;42.656;23.232;2022-09-11T01:33:08;12.40;;;4.27;;
61344;SDS011;47216;42.656;23.232;2022-09-11T01:35:49;5.00;;;4.27;;
61344;SDS011;47216;42.656;23.232;2022-09-11T01:38:23;7.33;;;4.37;;
61344;SDS011;47216;42.656;23.232;2022-09-11T01:40:57;8.50;;;4.83;;
61344;SDS011;47216;42.656;23.232;2022-09-11T01:43:34;9.17;;;4.57;;
61344;SDS011;47216;42.656;23.232;2022-09-11T01:46:05;8.17;;;4.30;;
61344;SDS011;47216;42.656;23.232;2022-09-11T01:48:35;9.00;;;4.63;;
61344;SDS011;47216;42.656;23.232;2022-09-11T01:51:07;6.47;;;4.20;;
61344;SDS011;47216;42.656;23.232;2022-09-11T01:53:40;10.03;;;4.40;;
61344;SDS011;47216;42.656;23.232;2022-09-11T01:56:22;6.33;;;4.03;;
61344;SDS011;47216;42.656;23.232;2022-09-11T01:58:54;9.13;;;4.70;;
61344;SDS011;47216;42.656;23.232;2022-09-11T02:01:27;8.90;;;4.93;;
61344;SDS011;47216;42.656;23.232;2022-09-11T02:03:59;6.83;;;4.60;;
61344;SDS011;47216;42.656;23.232;2022-09-11T02:06:32;5.27;;;4.27;;
61344;SDS011;47216;42.656;23.232;2022-09-11T02:09:04;9.13;;;3.60;;
61344;SDS011;47216;42.656;23.232;2022-09-11T02:11:36;5.03;;;4.37;;
61344;SDS011;47216;42.656;23.232;2022-09-11T02:14:09;7.20;;;4.17;;
61344;SDS011;47216;42.656;23.232;2022-09-11T02:16:44;6.80;;;3.93;;
61344;SDS011;47216;42.656;23.232;2022-09-11T02:19:15;5.43;;;4.80;;
61344;SDS011;47216;42.656;23.232;2022-09-11T02:21:43;4.47;;;3.73;;
61344;SDS011;47216;42.656;23.232;2022-09-11T02:24:13;9.40;;;4.47;;
61344;SDS011;47216;42.656;23.232;2022-09-11T02:26:41;9.30;;;4.10;;
61344;SDS011;47216;42.656;23.232;2022-09-11T02:29:12;5.20;;;3.77;;
61344;SDS011;47216;42.656;23.232;2022-09-11T02:31:40;7.00;;;4.13;;
61344;SDS011;47216;42.656;23.232;2022-09-11T02:34:08;7.33;;;4.10;;
61344;SDS011;47216;42.656;23.232;2022-09-11T02:39:46;3.40;;;3.10;;
61344;SDS011;47216;42.656;23.232;2022-09-11T02:42:26;6.70;;;3.20;;
61344;SDS011;47216;42.656;23.232;2022-09-11T02:45:06;3.57;;;3.20;;
61344;SDS011;47216;42.656;23.232;2022-09-11T02:47:43;4.83;;;3.30;;
61344;SDS011;47216;42.656;23.232;2022-09-11T02:50:22;5.23;;;3.90;;
61344;SDS011;47216;42.656;23.232;2022-09-11T02:53:00;4.00;;;3.37;;
61344;SDS011;47216;42.656;23.232;2022-09-11T02:55:33;3.80;;;3.30;;
61344;SDS011;47216;42.656;23.232;2022-09-11T02:58:11;5.93;;;3.63;;
61344;SDS011;47216;42.656;23.232;2022-09-11T03:00:44;6.57;;;3.40;;
61344;SDS011;47216;42.656;23.232;2022-09-11T03:03:12;4.23;;;3.47;;
61344;SDS011;47216;42.656;23.232;2022-09-11T03:05:39;4.20;;;3.23;;
61344;SDS011;47216;42.656;23.232;2022-09-11T03:08:06;6.37;;;3.30;;
61344;SDS011;47216;42.656;23.232;2022-09-11T03:10:33;5.33;;;3.80;;
61344;SDS011;47216;42.656;23.232;2022-09-11T03:13:00;5.33;;;3.17;;
61344;SDS011;47216;42.656;23.232;2022-09-11T03:15:27;3.57;;;3.13;;
61344;SDS011;47216;42.656;23.232;2022-09-11T03:17:55;4.67;;;3.77;;
61344;SDS011;47216;42.656;23.232;2022-09-11T03:20:22;3.70;;;3.40;;
61344;SDS011;47216;42.656;23.232;2022-09-11T03:22:49;3.60;;;3.30;;
61344;SDS011;47216;42.656;23.232;2022-09-11T03:25:16;6.23;;;3.60;;
61344;SDS011;47216;42.656;23.232;2022-09-11T03:27:43;9.33;;;3.70;;
61344;SDS011;47216;42.656;23.232;2022-09-11T03:30:10;5.50;;;3.07;;
61344;SDS011;47216;42.656;23.232;2022-09-11T03:32:37;5.80;;;3.50;;
61344;SDS011;47216;42.656;23.232;2022-09-11T03:35:05;3.90;;;3.50;;
61344;SDS011;47216;42.656;23.232;2022-09-11T03:37:32;3.93;;;3.07;;
61344;SDS011;47216;42.656;23.232;2022-09-11T03:39:59;4.33;;;3.40;;
61344;SDS011;47216;42.656;23.232;2022-09-11T03:42:26;5.07;;;3.50;;
61344;SDS011;47216;42.656;23.232;2022-09-11T03:44:53;5.57;;;3.60;;
61344;SDS011;47216;42.656;23.232;2022-09-11T03:47:20;4.67;;;3.70;;
61344;SDS011;47216;42.656;23.232;2022-09-11T03:49:47;8.57;;;3.97;;
61344;SDS011;47216;42.656;23.232;2022-09-11T03:52:15;6.20;;;3.60;;
61344;SDS011;47216;42.656;23.232;2022-09-11T03:54:42;5.57;;;4.27;;
61344;SDS011;47216;42.656;23.232;2022-09-11T03:57:08;6.40;;;4.20;;
61344;SDS011;47216;42.656;23.232;2022-09-11T03:59:35;5.13;;;3.73;;
61344;SDS011;47216;42.656;23.232;2022-09-11T04:02:03;6.23;;;3.47;;
61344;SDS011;47216;42.656;23.232;2022-09-11T04:04:30;4.63;;;3.43;;
61344;SDS011;47216;42.656;23.232;2022-09-11T04:06:57;7.47;;;3.43;;
61344;SDS011;47216;42.656;23.232;2022-09-11T04:09:25;6.33;;;3.83;;
61344;SDS011;47216;42.656;23.232;2022-09-11T04:11:52;9.97;;;3.70;;
61344;SDS011;47216;42.656;23.232;2022-09-11T04:14:19;4.10;;;3.20;;
61344;SDS011;47216;42.656;23.232;2022-09-11T04:16:47;7.27;;;4.00;;
61344;SDS011;47216;42.656;23.232;2022-09-11T04:19:13;4.90;;;3.40;;
61344;SDS011;47216;42.656;23.232;2022-09-11T04:21:41;4.23;;;3.60;;
61344;SDS011;47216;42.656;23.232;2022-09-11T04:24:08;6.60;;;3.23;;
61344;SDS011;47216;42.656;23.232;2022-09-11T04:26:37;7.37;;;3.90;;
61344;SDS011;47216;42.656;23.232;2022-09-11T04:29:04;7.37;;;3.60;;
61344;SDS011;47216;42.656;23.232;2022-09-11T04:31:30;5.07;;;3.97;;
61344;SDS011;47216;42.656;23.232;2022-09-11T04:33:59;4.37;;;3.47;;
61344;SDS011;47216;42.656;23.232;2022-09-11T04:36:26;5.80;;;3.60;;
61344;SDS011;47216;42.656;23.232;2022-09-11T04:38:54;5.73;;;3.97;;
61344;SDS011;47216;42.656;23.232;2022-09-11T04:41:22;3.83;;;3.20;;
61344;SDS011;47216;42.656;23.232;2022-09-11T04:43:54;4.83;;;3.93;;
61344;SDS011;47216;42.656;23.232;2022-09-11T04:46:22;8.97;;;3.90;;
61344;SDS011;47216;42.656;23.232;2022-09-11T04:48:50;10.90;;;3.67;;
61344;SDS011;47216;42.656;23.232;2022-09-11T04:51:19;4.80;;;4.03;;
61344;SDS011;47216;42.656;23.232;2022-09-11T04:53:47;5.30;;;4.03;;
61344;SDS011;47216;42.656;23.232;2022-09-11T04:56:14;6.77;;;3.60;;
61344;SDS011;47216;42.656;23.232;2022-09-11T04:58:41;5.20;;;3.80;;
61344;SDS011;47216;42.656;23.232;2022-09-11T05:01:10;5.63;;;4.10;;
61344;SDS011;47216;42.656;23.232;2022-09-11T05:03:39;4.63;;;3.90;;
61344;SDS011;47216;42.656;23.232;2022-09-11T05:06:08;5.80;;;3.77;;
61344;SDS011;47216;42.656;23.232;2022-09-11T05:08:41;7.83;;;3.77;;
61344;SDS011;47216;42.656;23.232;2022-09-11T05:11:09;4.67;;;4.10;;
61344;SDS011;47216;42.656;23.232;2022-09-11T05:13:37;4.53;;;4.07;;
61344;SDS011;47216;42.656;23.232;2022-09-11T05:16:05;6.27;;;4.40;;
61344;SDS011;47216;42.656;23.232;2022-09-11T05:18:34;8.17;;;4.70;;
61344;SDS011;47216;42.656;23.232;2022-09-11T05:21:03;5.33;;;4.57;;
61344;SDS011;47216;42.656;23.232;2022-09-11T05:23:32;8.93;;;3.80;;
61344;SDS011;47216;42.656;23.232;2022-09-11T05:25:59;8.90;;;4.47;;
61344;SDS011;47216;42.656;23.232;2022-09-11T05:28:28;5.17;;;4.67;;
61344;SDS011;47216;42.656;23.232;2022-09-11T05:30:56;5.50;;;4.50;;
61344;SDS011;47216;42.656;23.232;2022-09-11T05:33:23;4.77;;;4.27;;
61344;SDS011;47216;42.656;23.232;2022-09-11T05:35:53;6.60;;;4.63;;
61344;SDS011;47216;42.656;23.232;2022-09-11T05:38:27;6.07;;;4.97;;
61344;SDS011;47216;42.656;23.232;2022-09-11T05:40:55;5.83;;;4.80;;
61344;SDS011;47216;42.656;23.232;2022-09-11T05:43:21;5.20;;;4.70;;
61344;SDS011;47216;42.656;23.232;2022-09-11T05:45:52;9.53;;;5.90;;
61344;SDS011;47216;42.656;23.232;2022-09-11T05:48:20;8.73;;;5.63;;
61344;SDS011;47216;42.656;23.232;2022-09-11T05:50:51;10.70;;;6.17;;
61344;SDS011;47216;42.656;23.232;2022-09-11T05:53:20;7.03;;;5.93;;
61344;SDS011;47216;42.656;23.232;2022-09-11T05:55:47;7.03;;;6.33;;
61344;SDS011;47216;42.656;23.232;2022-09-11T05:58:14;8.50;;;6.90;;
61344;SDS011;47216;42.656;23.232;2022-09-11T06:00:41;9.40;;;6.77;;
61344;SDS011;47216;42.656;23.232;2022-09-11T06:03:10;11.17;;;6.70;;
61344;SDS011;47216;42.656;23.232;2022-09-11T06:05:37;8.87;;;7.03;;
61344;SDS011;47216;42.656;23.232;2022-09-11T06:08:06;7.40;;;6.70;;
61344;SDS011;47216;42.656;23.232;2022-09-11T06:10:33;8.27;;;6.53;;
61344;SDS011;47216;42.656;23.232;2022-09-11T06:12:59;7.90;;;6.53;;
61344;SDS011;47216;42.656;23.232;2022-09-11T06:15:26;8.57;;;7.57;;
61344;SDS011;47216;42.656;23.232;2022-09-11T06:17:53;9.13;;;6.80;;
61344;SDS011;47216;42.656;23.232;2022-09-11T06:20:21;7.93;;;6.73;;
61344;SDS011;47216;42.656;23.232;2022-09-11T06:22:48;10.27;;;6.93;;
61344;SDS011;47216;42.656;23.232;2022-09-11T06:25:16;9.33;;;6.93;;
61344;SDS011;47216;42.656;23.232;2022-09-11T06:27:43;8.03;;;7.23;;
61344;SDS011;47216;42.656;23.232;2022-09-11T06:30:10;12.50;;;7.93;;
61344;SDS011;47216;42.656;23.232;2022-09-11T06:32:38;12.57;;;7.43;;
61344;SDS011;47216;42.656;23.232;2022-09-11T06:35:05;9.07;;;7.00;;
61344;SDS011;47216;42.656;23.232;2022-09-11T06:37:32;12.20;;;7.83;;
61344;SDS011;47216;42.656;23.232;2022-09-11T06:40:00;10.90;;;7.70;;
61344;SDS011;47216;42.656;23.232;2022-09-11T06:42:29;14.20;;;8.13;;
61344;SDS011;47216;42.656;23.232;2022-09-11T06:44:55;8.47;;;7.30;;
61344;SDS011;47216;42.656;23.232;2022-09-11T06:47:22;8.93;;;7.13;;
61344;SDS011;47216;42.656;23.232;2022-09-11T06:49:49;11.23;;;7.80;;
61344;SDS011;47216;42.656;23.232;2022-09-11T06:52:16;8.70;;;7.30;;
61344;SDS011;47216;42.656;23.232;2022-09-11T06:54:43;10.43;;;7.63;;
61344;SDS011;47216;42.656;23.232;2022-09-11T06:57:10;9.23;;;7.17;;
61344;SDS011;47216;42.656;23.232;2022-09-11T06:59:38;9.03;;;6.97;;
61344;SDS011;47216;42.656;23.232;2022-09-11T07:02:07;8.13;;;7.33;;
61344;SDS011;47216;42.656;23.232;2022-09-11T07:04:34;9.23;;;7.67;;
61344;SDS011;47216;42.656;23.232;2022-09-11T07:07:01;7.87;;;7.00;;
61344;SDS011;47216;42.656;23.232;2022-09-11T07:09:27;8.10;;;6.67;;
61344;SDS011;47216;42.656;23.232;2022-09-11T07:11:54;9.07;;;7.10;;
61344;SDS011;47216;42.656;23.232;2022-09-11T07:14:21;8.50;;;7.10;;
61344;SDS011;47216;42.656;23.232;2022-09-11T07:16:49;10.87;;;7.33;;
61344;SDS011;47216;42.656;23.232;2022-09-11T07:19:19;9.73;;;6.97;;
61344;SDS011;47216;42.656;23.232;2022-09-11T07:21:45;8.60;;;6.50;;
61344;SDS011;47216;42.656;23.232;2022-09-11T07:24:12;12.63;;;6.93;;
61344;SDS011;47216;42.656;23.232;2022-09-11T07:26:39;6.83;;;6.17;;
61344;SDS011;47216;42.656;23.232;2022-09-11T07:29:06;7.33;;;6.53;;
61344;SDS011;47216;42.656;23.232;2022-09-11T07:31:33;8.97;;;7.40;;
61344;SDS011;47216;42.656;23.232;2022-09-11T07:34:04;9.77;;;7.17;;
61344;SDS011;47216;42.656;23.232;2022-09-11T07:36:31;8.90;;;8.00;;
61344;SDS011;47216;42.656;23.232;2022-09-11T07:39:00;10.77;;;7.63;;
61344;SDS011;47216;42.656;23.232;2022-09-11T07:41:28;8.40;;;7.20;;
61344;SDS011;47216;42.656;23.232;2022-09-11T07:43:56;10.63;;;8.57;;
61344;SDS011;47216;42.656;23.232;2022-09-11T07:46:25;8.97;;;7.43;;
61344;SDS011;47216;42.656;23.232;2022-09-11T07:48:55;8.97;;;7.77;;
61344;SDS011;47216;42.656;23.232;2022-09-11T07:51:24;9.13;;;6.63;;
61344;SDS011;47216;42.656;23.232;2022-09-11T07:53:51;7.87;;;7.07;;
61344;SDS011;47216;42.656;23.232;2022-09-11T07:56:19;7.83;;;7.03;;
61344;SDS011;47216;42.656;23.232;2022-09-11T07:58:52;8.50;;;7.60;;
61344;SDS011;47216;42.656;23.232;2022-09-11T08:01:20;7.97;;;6.93;;
61344;SDS011;47216;42.656;23.232;2022-09-11T08:03:51;7.93;;;7.13;;
61344;SDS011;47216;42.656;23.232;2022-09-11T08:06:19;9.17;;;7.80;;
61344;SDS011;47216;42.656;23.232;2022-09-11T08:08:52;9.23;;;7.47;;
61344;SDS011;47216;42.656;23.232;2022-09-11T08:11:19;12.80;;;7.33;;
61344;SDS011;47216;42.656;23.232;2022-09-11T08:13:47;8.63;;;7.50;;
61344;SDS011;47216;42.656;23.232;2022-09-11T08:16:16;9.33;;;7.97;;
61344;SDS011;47216;42.656;23.232;2022-09-11T08:18:43;8.80;;;7.47;;
61344;SDS011;47216;42.656;23.232;2022-09-11T08:21:10;9.55;;;7.60;;
61344;SDS011;47216;42.656;23.232;2022-09-11T08:23:38;33.60;;;22.27;;
61344;SDS011;47216;42.656;23.232;2022-09-11T08:26:09;13.27;;;11.07;;
61344;SDS011;47216;42.656;23.232;2022-09-11T08:28:37;29.75;;;21.10;;
61344;SDS011;47216;42.656;23.232;2022-09-11T08:31:04;12.77;;;7.47;;
61344;SDS011;47216;42.656;23.232;2022-09-11T08:33:32;8.05;;;7.25;;
61344;SDS011;47216;42.656;23.232;2022-09-11T08:35:59;7.97;;;6.80;;
61344;SDS011;47216;42.656;23.232;2022-09-11T08:38:27;9.70;;;8.05;;
61344;SDS011;47216;42.656;23.232;2022-09-11T08:40:55;8.20;;;7.40;;
61344;SDS011;47216;42.656;23.232;2022-09-11T08:43:25;11.32;;;7.03;;
61344;SDS011;47216;42.656;23.232;2022-09-11T08:45:58;10.07;;;8.40;;
61344;SDS011;47216;42.656;23.232;2022-09-11T08:48:31;7.95;;;6.63;;
61344;SDS011;47216;42.656;23.232;2022-09-11T08:51:01;9.82;;;7.88;;
61344;SDS011;47216;42.656;23.232;2022-09-11T08:53:29;10.70;;;7.55;;
61344;SDS011;47216;42.656;23.232;2022-09-11T08:55:58;8.40;;;7.50;;
61344;SDS011;47216;42.656;23.232;2022-09-11T08:58:34;8.17;;;7.33;;
61344;SDS011;47216;42.656;23.232;2022-09-11T09:01:16;8.20;;;7.32;;
61344;SDS011;47216;42.656;23.232;2022-09-11T09:03:54;19.15;;;12.38;;
61344;SDS011;47216;42.656;23.232;2022-09-11T09:06:35;27.52;;;16.60;;
61344;SDS011;47216;42.656;23.232;2022-09-11T09:09:17;8.35;;;7.20;;
61344;SDS011;47216;42.656;23.232;2022-09-11T09:11:53;11.85;;;8.50;;
61344;SDS011;47216;42.656;23.232;2022-09-11T09:14:29;18.88;;;8.88;;
61344;SDS011;47216;42.656;23.232;2022-09-11T09:17:10;7.53;;;6.78;;
61344;SDS011;47216;42.656;23.232;2022-09-11T09:19:44;9.27;;;7.95;;
61344;SDS011;47216;42.656;23.232;2022-09-11T09:22:16;9.23;;;7.05;;
61344;SDS011;47216;42.656;23.232;2022-09-11T09:24:50;8.27;;;7.47;;
61344;SDS011;47216;42.656;23.232;2022-09-11T09:27:21;8.27;;;6.85;;
61344;SDS011;47216;42.656;23.232;2022-09-11T09:29:55;6.88;;;6.18;;
61344;SDS011;47216;42.656;23.232;2022-09-11T09:32:27;7.07;;;6.35;;
61344;SDS011;47216;42.656;23.232;2022-09-11T09:34:57;7.20;;;6.50;;
61344;SDS011;47216;42.656;23.232;2022-09-11T09:37:27;8.43;;;7.53;;
61344;SDS011;47216;42.656;23.232;2022-09-11T09:39:54;7.40;;;6.70;;
61344;SDS011;47216;42.656;23.232;2022-09-11T09:48:20;7.60;;;6.40;;
61344;SDS011;47216;42.656;23.232;2022-09-11T09:50:47;6.30;;;5.70;;
61344;SDS011;47216;42.656;23.232;2022-09-11T09:53:15;7.93;;;6.18;;
61344;SDS011;47216;42.656;23.232;2022-09-11T09:55:51;7.85;;;6.07;;
61344;SDS011;47216;42.656;23.232;2022-09-11T09:58:20;12.25;;;6.88;;
61344;SDS011;47216;42.656;23.232;2022-09-11T10:00:51;9.65;;;6.72;;
61344;SDS011;47216;42.656;23.232;2022-09-11T10:03:19;11.73;;;6.28;;
61344;SDS011;47216;42.656;23.232;2022-09-11T10:05:47;8.68;;;7.10;;
61344;SDS011;47216;42.656;23.232;2022-09-11T10:08:24;6.97;;;6.35;;
61344;SDS011;47216;42.656;23.232;2022-09-11T10:10:53;6.05;;;5.45;;
61344;SDS011;47216;42.656;23.232;2022-09-11T10:13:22;7.20;;;6.25;;
61344;SDS011;47216;42.656;23.232;2022-09-11T10:15:52;8.55;;;6.78;;
61344;SDS011;47216;42.656;23.232;2022-09-11T10:18:33;6.53;;;5.80;;
61344;SDS011;47216;42.656;23.232;2022-09-11T10:23:49;6.40;;;5.80;;
61344;SDS011;47216;42.656;23.232;2022-09-11T10:26:18;7.53;;;5.40;;
61344;SDS011;47216;42.656;23.232;2022-09-11T10:28:48;5.93;;;5.32;;
61344;SDS011;47216;42.656;23.232;2022-09-11T10:31:17;7.47;;;5.55;;
61344;SDS011;47216;42.656;23.232;2022-09-11T10:33:47;6.10;;;5.15;;
61344;SDS011;47216;42.656;23.232;2022-09-11T10:36:20;6.68;;;6.00;;
61344;SDS011;47216;42.656;23.232;2022-09-11T10:38:48;6.30;;;5.70;;
61344;SDS011;47216;42.656;23.232;2022-09-11T10:41:18;6.13;;;5.32;;
61344;SDS011;47216;42.656;23.232;2022-09-11T10:43:47;5.68;;;5.18;;
61344;SDS011;47216;42.656;23.232;2022-09-11T10:46:29;5.97;;;5.38;;
61344;SDS011;47216;42.656;23.232;2022-09-11T10:49:05;6.32;;;5.72;;
61344;SDS011;47216;42.656;23.232;2022-09-11T10:51:35;5.68;;;5.07;;
61344;SDS011;47216;42.656;23.232;2022-09-11T10:54:06;6.55;;;4.90;;
61344;SDS011;47216;42.656;23.232;2022-09-11T10:56:51;6.32;;;5.32;;
61344;SDS011;47216;42.656;23.232;2022-09-11T10:59:30;5.43;;;4.93;;
61344;SDS011;47216;42.656;23.232;2022-09-11T11:02:09;6.40;;;5.45;;
61344;SDS011;47216;42.656;23.232;2022-09-11T11:04:43;5.40;;;4.85;;
61344;SDS011;47216;42.656;23.232;2022-09-11T11:07:12;6.10;;;5.38;;
61344;SDS011;47216;42.656;23.232;2022-09-11T11:09:52;9.70;;;5.45;;
61344;SDS011;47216;42.656;23.232;2022-09-11T11:12:32;5.13;;;4.63;;
61344;SDS011;47216;42.656;23.232;2022-09-11T11:18:04;5.97;;;5.32;;
61344;SDS011;47216;42.656;23.232;2022-09-11T11:20:44;6.07;;;5.20;;
61344;SDS011;47216;42.656;23.232;2022-09-11T11:23:25;5.45;;;4.93;;
61344;SDS011;47216;42.656;23.232;2022-09-11T11:26:14;6.30;;;5.70;;
61344;SDS011;47216;42.656;23.232;2022-09-11T11:28:58;8.27;;;6.10;;
61344;SDS011;47216;42.656;23.232;2022-09-11T11:31:41;7.57;;;6.20;;
61344;SDS011;47216;42.656;23.232;2022-09-11T11:34:24;7.15;;;6.20;;
61344;SDS011;47216;42.656;23.232;2022-09-11T11:37:04;6.80;;;6.10;;
61344;SDS011;47216;42.656;23.232;2022-09-11T11:39:41;9.77;;;6.25;;
61344;SDS011;47216;42.656;23.232;2022-09-11T11:42:23;8.77;;;7.20;;
61344;SDS011;47216;42.656;23.232;2022-09-11T11:44:53;9.55;;;7.18;;
61344;SDS011;47216;42.656;23.232;2022-09-11T11:47:23;11.57;;;7.32;;
61344;SDS011;47216;42.656;23.232;2022-09-11T11:49:57;7.97;;;6.43;;
61344;SDS011;47216;42.656;23.232;2022-09-11T11:52:33;5.80;;;5.30;;
61344;SDS011;47216;42.656;23.232;2022-09-11T11:55:15;6.97;;;6.15;;
61344;SDS011;47216;42.656;23.232;2022-09-11T11:57:47;6.57;;;5.57;;
61344;SDS011;47216;42.656;23.232;2022-09-11T12:00:20;5.88;;;5.05;;
61344;SDS011;47216;42.656;23.232;2022-09-11T12:02:49;6.15;;;5.38;;
61344;SDS011;47216;42.656;23.232;2022-09-11T12:05:22;7.80;;;5.22;;
61344;SDS011;47216;42.656;23.232;2022-09-11T12:07:51;6.72;;;6.00;;
61344;SDS011;47216;42.656;23.232;2022-09-11T12:10:25;7.68;;;6.18;;
61344;SDS011;47216;42.656;23.232;2022-09-11T12:12:57;7.15;;;6.35;;
61344;SDS011;47216;42.656;23.232;2022-09-11T12:15:27;7.03;;;5.40;;
61344;SDS011;47216;42.656;23.232;2022-09-11T12:17:59;6.68;;;5.65;;
61344;SDS011;47216;42.656;23.232;2022-09-11T12:20:34;6.90;;;6.20;;
61344;SDS011;47216;42.656;23.232;2022-09-11T12:23:05;6.00;;;5.50;;
61344;SDS011;47216;42.656;23.232;2022-09-11T12:26:15;6.57;;;5.90;;
61344;SDS011;47216;42.656;23.232;2022-09-11T12:28:43;6.90;;;6.18;;
61344;SDS011;47216;42.656;23.232;2022-09-11T12:31:11;6.97;;;6.25;;
61344;SDS011;47216;42.656;23.232;2022-09-11T12:33:49;8.48;;;5.95;;
61344;SDS011;47216;42.656;23.232;2022-09-11T12:36:21;10.63;;;5.47;;
61344;SDS011;47216;42.656;23.232;2022-09-11T12:38:56;7.43;;;6.30;;
61344;SDS011;47216;42.656;23.232;2022-09-11T12:41:28;5.10;;;4.60;;
61344;SDS011;47216;42.656;23.232;2022-09-11T12:43:57;8.63;;;5.30;;
61344;SDS011;47216;42.656;23.232;2022-09-11T12:49:42;5.95;;;4.70;;
61344;SDS011;47216;42.656;23.232;2022-09-11T12:55:19;6.72;;;4.90;;
61344;SDS011;47216;42.656;23.232;2022-09-11T12:57:54;6.32;;;5.30;;
61344;SDS011;47216;42.656;23.232;2022-09-11T13:00:22;9.77;;;5.97;;
61344;SDS011;47216;42.656;23.232;2022-09-11T13:02:58;5.63;;;4.60;;
61344;SDS011;47216;42.656;23.232;2022-09-11T13:05:26;7.03;;;4.57;;
61344;SDS011;47216;42.656;23.232;2022-09-11T13:08:00;4.80;;;4.10;;
61344;SDS011;47216;42.656;23.232;2022-09-11T13:10:32;8.77;;;5.20;;
61344;SDS011;47216;42.656;23.232;2022-09-11T13:13:01;5.20;;;4.80;;
61344;SDS011;47216;42.656;23.232;2022-09-11T13:15:30;7.18;;;5.05;;
61344;SDS011;47216;42.656;23.232;2022-09-11T13:18:14;6.60;;;4.80;;
61344;SDS011;47216;42.656;23.232;2022-09-11T13:20:55;5.15;;;4.65;;
61344;SDS011;47216;42.656;23.232;2022-09-11T13:23:24;5.18;;;4.68;;
61344;SDS011;47216;42.656;23.232;2022-09-11T13:25:52;7.43;;;6.00;;
61344;SDS011;47216;42.656;23.232;2022-09-11T13:28:20;6.13;;;5.53;;
61344;SDS011;47216;42.656;23.232;2022-09-11T13:30:51;7.32;;;5.68;;
61344;SDS011;47216;42.656;23.232;2022-09-11T13:33:21;7.78;;;6.15;;
61344;SDS011;47216;42.656;23.232;2022-09-11T13:35:51;8.45;;;7.65;;
61344;SDS011;47216;42.656;23.232;2022-09-11T13:38:20;6.03;;;5.45;;
61344;SDS011;47216;42.656;23.232;2022-09-11T13:40:55;8.05;;;5.80;;
61344;SDS011;47216;42.656;23.232;2022-09-11T13:43:24;6.20;;;5.60;;
61344;SDS011;47216;42.656;23.232;2022-09-11T13:46:08;11.40;;;10.30;;
61344;SDS011;47216;42.656;23.232;2022-09-11T13:48:36;5.95;;;5.38;;
61344;SDS011;47216;42.656;23.232;2022-09-11T13:51:03;7.32;;;6.50;;
61344;SDS011;47216;42.656;23.232;2022-09-11T13:53:33;8.15;;;6.00;;
61344;SDS011;47216;42.656;23.232;2022-09-11T13:56:01;7.50;;;6.47;;
61344;SDS011;47216;42.656;23.232;2022-09-11T13:58:28;6.85;;;5.30;;
61344;SDS011;47216;42.656;23.232;2022-09-11T14:01:08;7.38;;;5.85;;
61344;SDS011;47216;42.656;23.232;2022-09-11T14:03:36;5.70;;;5.20;;
61344;SDS011;47216;42.656;23.232;2022-09-11T14:06:08;6.15;;;5.38;;
61344;SDS011;47216;42.656;23.232;2022-09-11T14:08:41;6.55;;;5.85;;
61344;SDS011;47216;42.656;23.232;2022-09-11T14:11:11;9.07;;;6.28;;
61344;SDS011;47216;42.656;23.232;2022-09-11T14:13:47;4.82;;;4.32;;
61344;SDS011;47216;42.656;23.232;2022-09-11T14:16:19;6.45;;;5.22;;
61344;SDS011;47216;42.656;23.232;2022-09-11T14:18:49;5.43;;;4.93;;
61344;SDS011;47216;42.656;23.232;2022-09-11T14:21:20;7.20;;;6.05;;
61344;SDS011;47216;42.656;23.232;2022-09-11T14:23:51;6.22;;;4.80;;
61344;SDS011;47216;42.656;23.232;2022-09-11T14:26:19;4.90;;;4.40;;
61344;SDS011;47216;42.656;23.232;2022-09-11T14:28:56;8.93;;;5.25;;
61344;SDS011;47216;42.656;23.232;2022-09-11T14:31:29;6.03;;;4.82;;
61344;SDS011;47216;42.656;23.232;2022-09-11T14:34:05;5.43;;;4.68;;
61344;SDS011;47216;42.656;23.232;2022-09-11T14:36:37;7.70;;;5.53;;
61344;SDS011;47216;42.656;23.232;2022-09-11T14:39:10;6.22;;;5.47;;
61344;SDS011;47216;42.656;23.232;2022-09-11T14:41:41;6.88;;;5.65;;
61344;SDS011;47216;42.656;23.232;2022-09-11T14:44:09;11.48;;;8.25;;
61344;SDS011;47216;42.656;23.232;2022-09-11T14:46:39;7.10;;;6.00;;
61344;SDS011;47216;42.656;23.232;2022-09-11T14:49:06;5.60;;;5.00;;
61344;SDS011;47216;42.656;23.232;2022-09-11T14:51:34;6.90;;;4.82;;
61344;SDS011;47216;42.656;23.232;2022-09-11T14:54:02;6.78;;;5.60;;
61344;SDS011;47216;42.656;23.232;2022-09-11T14:56:30;6.90;;;5.63;;
61344;SDS011;47216;42.656;23.232;2022-09-11T14:58:57;8.27;;;5.28;;
61344;SDS011;47216;42.656;23.232;2022-09-11T15:01:24;7.22;;;5.80;;
61344;SDS011;47216;42.656;23.232;2022-09-11T15:03:51;8.85;;;5.82;;
61344;SDS011;47216;42.656;23.232;2022-09-11T15:06:19;6.68;;;5.75;;
61344;SDS011;47216;42.656;23.232;2022-09-11T15:08:46;7.90;;;5.20;;
61344;SDS011;47216;42.656;23.232;2022-09-11T15:11:13;6.68;;;4.88;;
61344;SDS011;47216;42.656;23.232;2022-09-11T15:13:41;8.63;;;5.63;;
61344;SDS011;47216;42.656;23.232;2022-09-11T15:16:10;6.30;;;5.57;;